sensor_id;sensor_type;location;lat;lon;timestamp;P1;durP1;ratioP1;P2;durP2;ratioP2
65567;SDS011;52211;50.154;8.682;2022-10-14T00:01:30;13.40;;;11.17;;
65567;SDS011;52211;50.154;8.682;2022-10-14T00:03:58;14.17;;;11.83;;
65567;SDS011;52211;50.154;8.682;2022-10-14T00:06:32;13.07;;;11.70;;
65567;SDS011;52211;50.154;8.682;2022-10-14T00:09:01;13.53;;;12.27;;
65567;SDS011;52211;50.154;8.682;2022-10-14T00:11:32;12.57;;;11.07;;
65567;SDS011;52211;50.154;8.682;2022-10-14T00:14:06;12.63;;;11.33;;
65567;SDS011;52211;50.154;8.682;2022-10-14T00:16:42;12.53;;;11.23;;
65567;SDS011;52211;50.154;8.682;2022-10-14T00:19:13;10.97;;;9.87;;
65567;SDS011;52211;50.154;8.682;2022-10-14T00:21:41;12.47;;;11.20;;
65567;SDS011;52211;50.154;8.682;2022-10-14T00:24:10;10.57;;;9.60;;
65567;SDS011;52211;50.154;8.682;2022-10-14T00:26:44;11.03;;;10.10;;
65567;SDS011;52211;50.154;8.682;2022-10-14T00:29:16;11.57;;;10.37;;
65567;SDS011;52211;50.154;8.682;2022-10-14T00:31:44;11.60;;;10.27;;
65567;SDS011;52211;50.154;8.682;2022-10-14T00:34:12;12.00;;;10.77;;
65567;SDS011;52211;50.154;8.682;2022-10-14T00:36:43;10.33;;;9.43;;
65567;SDS011;52211;50.154;8.682;2022-10-14T00:39:13;11.57;;;10.27;;
65567;SDS011;52211;50.154;8.682;2022-10-14T00:41:40;12.63;;;10.27;;
65567;SDS011;52211;50.154;8.682;2022-10-14T00:46:41;11.03;;;9.90;;
65567;SDS011;52211;50.154;8.682;2022-10-14T00:51:47;10.57;;;9.57;;
65567;SDS011;52211;50.154;8.682;2022-10-14T00:54:27;9.83;;;8.73;;
65567;SDS011;52211;50.154;8.682;2022-10-14T00:57:02;9.90;;;9.00;;
65567;SDS011;52211;50.154;8.682;2022-10-14T00:59:31;9.47;;;8.63;;
65567;SDS011;52211;50.154;8.682;2022-10-14T01:01:59;10.03;;;9.13;;
65567;SDS011;52211;50.154;8.682;2022-10-14T01:04:26;9.03;;;8.23;;
65567;SDS011;52211;50.154;8.682;2022-10-14T01:07:05;10.03;;;9.03;;
65567;SDS011;52211;50.154;8.682;2022-10-14T01:09:40;9.83;;;9.03;;
65567;SDS011;52211;50.154;8.682;2022-10-14T01:12:54;8.93;;;8.13;;
65567;SDS011;52211;50.154;8.682;2022-10-14T01:19:15;8.77;;;7.97;;
65567;SDS011;52211;50.154;8.682;2022-10-14T01:22:46;12.40;;;9.20;;
65567;SDS011;52211;50.154;8.682;2022-10-14T01:28:26;8.97;;;8.23;;
65567;SDS011;52211;50.154;8.682;2022-10-14T01:31:28;8.93;;;7.90;;
65567;SDS011;52211;50.154;8.682;2022-10-14T01:34:04;8.93;;;8.13;;
65567;SDS011;52211;50.154;8.682;2022-10-14T01:36:47;9.13;;;8.23;;
65567;SDS011;52211;50.154;8.682;2022-10-14T01:41:56;9.03;;;8.23;;
65567;SDS011;52211;50.154;8.682;2022-10-14T01:44:30;11.03;;;8.83;;
65567;SDS011;52211;50.154;8.682;2022-10-14T01:47:01;9.27;;;8.37;;
65567;SDS011;52211;50.154;8.682;2022-10-14T01:49:31;8.50;;;7.70;;
65567;SDS011;52211;50.154;8.682;2022-10-14T01:52:06;8.97;;;8.03;;
65567;SDS011;52211;50.154;8.682;2022-10-14T01:54:42;9.00;;;8.13;;
65567;SDS011;52211;50.154;8.682;2022-10-14T01:57:17;8.27;;;7.57;;
65567;SDS011;52211;50.154;8.682;2022-10-14T01:59:51;9.93;;;8.70;;
65567;SDS011;52211;50.154;8.682;2022-10-14T02:02:25;9.37;;;8.63;;
65567;SDS011;52211;50.154;8.682;2022-10-14T02:04:52;9.70;;;8.80;;
65567;SDS011;52211;50.154;8.682;2022-10-14T02:24:25;9.43;;;8.53;;
65567;SDS011;52211;50.154;8.682;2022-10-14T02:27:10;10.80;;;8.30;;
65567;SDS011;52211;50.154;8.682;2022-10-14T02:29:47;10.00;;;9.10;;
65567;SDS011;52211;50.154;8.682;2022-10-14T02:32:17;9.80;;;8.80;;
65567;SDS011;52211;50.154;8.682;2022-10-14T02:34:51;9.27;;;8.47;;
65567;SDS011;52211;50.154;8.682;2022-10-14T02:37:20;10.57;;;9.53;;
65567;SDS011;52211;50.154;8.682;2022-10-14T02:39:56;11.40;;;8.87;;
65567;SDS011;52211;50.154;8.682;2022-10-14T02:42:39;10.43;;;9.40;;
65567;SDS011;52211;50.154;8.682;2022-10-14T02:45:08;10.50;;;9.47;;
65567;SDS011;52211;50.154;8.682;2022-10-14T02:47:37;10.97;;;9.37;;
65567;SDS011;52211;50.154;8.682;2022-10-14T02:50:07;10.77;;;9.70;;
65567;SDS011;52211;50.154;8.682;2022-10-14T02:52:36;10.63;;;9.57;;
65567;SDS011;52211;50.154;8.682;2022-10-14T02:55:05;9.63;;;8.77;;
65567;SDS011;52211;50.154;8.682;2022-10-14T02:57:33;9.10;;;8.40;;
65567;SDS011;52211;50.154;8.682;2022-10-14T03:00:03;10.57;;;9.47;;
65567;SDS011;52211;50.154;8.682;2022-10-14T03:02:31;9.83;;;8.93;;
65567;SDS011;52211;50.154;8.682;2022-10-14T03:05:00;10.77;;;9.00;;
65567;SDS011;52211;50.154;8.682;2022-10-14T03:07:32;11.27;;;10.17;;
65567;SDS011;52211;50.154;8.682;2022-10-14T03:10:02;10.40;;;9.30;;
65567;SDS011;52211;50.154;8.682;2022-10-14T03:12:30;10.23;;;9.40;;
65567;SDS011;52211;50.154;8.682;2022-10-14T03:14:59;11.27;;;9.33;;
65567;SDS011;52211;50.154;8.682;2022-10-14T03:17:30;10.07;;;9.17;;
65567;SDS011;52211;50.154;8.682;2022-10-14T03:20:02;9.50;;;8.70;;
65567;SDS011;52211;50.154;8.682;2022-10-14T03:22:30;10.07;;;9.17;;
65567;SDS011;52211;50.154;8.682;2022-10-14T03:24:57;10.27;;;9.23;;
65567;SDS011;52211;50.154;8.682;2022-10-14T03:27:27;9.57;;;8.53;;
65567;SDS011;52211;50.154;8.682;2022-10-14T03:29:55;9.97;;;9.07;;
65567;SDS011;52211;50.154;8.682;2022-10-14T03:32:22;11.37;;;9.13;;
65567;SDS011;52211;50.154;8.682;2022-10-14T03:34:51;11.00;;;9.30;;
65567;SDS011;52211;50.154;8.682;2022-10-14T03:37:20;10.87;;;9.57;;
65567;SDS011;52211;50.154;8.682;2022-10-14T03:39:47;10.23;;;9.17;;
65567;SDS011;52211;50.154;8.682;2022-10-14T03:42:16;9.53;;;8.63;;
65567;SDS011;52211;50.154;8.682;2022-10-14T03:44:45;10.13;;;9.13;;
65567;SDS011;52211;50.154;8.682;2022-10-14T03:47:12;10.87;;;9.87;;
65567;SDS011;52211;50.154;8.682;2022-10-14T03:49:41;10.47;;;9.33;;
65567;SDS011;52211;50.154;8.682;2022-10-14T03:52:08;10.47;;;8.77;;
65567;SDS011;52211;50.154;8.682;2022-10-14T03:54:35;10.17;;;9.23;;
65567;SDS011;52211;50.154;8.682;2022-10-14T03:57:01;10.20;;;9.20;;
65567;SDS011;52211;50.154;8.682;2022-10-14T03:59:28;10.83;;;9.47;;
65567;SDS011;52211;50.154;8.682;2022-10-14T04:02:00;10.73;;;9.73;;
65567;SDS011;52211;50.154;8.682;2022-10-14T04:04:31;11.00;;;9.57;;
65567;SDS011;52211;50.154;8.682;2022-10-14T04:07:01;10.37;;;9.37;;
65567;SDS011;52211;50.154;8.682;2022-10-14T04:09:30;10.00;;;9.20;;
65567;SDS011;52211;50.154;8.682;2022-10-14T04:12:00;12.43;;;10.10;;
65567;SDS011;52211;50.154;8.682;2022-10-14T04:14:27;11.07;;;10.03;;
65567;SDS011;52211;50.154;8.682;2022-10-14T04:16:53;11.37;;;10.23;;
65567;SDS011;52211;50.154;8.682;2022-10-14T04:19:23;10.20;;;9.30;;
65567;SDS011;52211;50.154;8.682;2022-10-14T04:21:49;10.67;;;9.40;;
65567;SDS011;52211;50.154;8.682;2022-10-14T04:24:19;11.33;;;9.13;;
65567;SDS011;52211;50.154;8.682;2022-10-14T04:26:48;9.63;;;8.73;;
65567;SDS011;52211;50.154;8.682;2022-10-14T04:29:18;10.27;;;9.37;;
65567;SDS011;52211;50.154;8.682;2022-10-14T04:31:47;10.97;;;9.50;;
65567;SDS011;52211;50.154;8.682;2022-10-14T04:34:16;10.03;;;8.63;;
65567;SDS011;52211;50.154;8.682;2022-10-14T04:36:43;10.30;;;9.27;;
65567;SDS011;52211;50.154;8.682;2022-10-14T04:39:12;10.03;;;9.13;;
65567;SDS011;52211;50.154;8.682;2022-10-14T04:41:41;8.93;;;8.23;;
65567;SDS011;52211;50.154;8.682;2022-10-14T04:44:08;10.37;;;9.33;;
65567;SDS011;52211;50.154;8.682;2022-10-14T04:46:39;9.80;;;8.80;;
65567;SDS011;52211;50.154;8.682;2022-10-14T04:49:07;9.00;;;8.30;;
65567;SDS011;52211;50.154;8.682;2022-10-14T04:51:35;9.60;;;8.80;;
65567;SDS011;52211;50.154;8.682;2022-10-14T04:54:01;10.63;;;8.90;;
65567;SDS011;52211;50.154;8.682;2022-10-14T04:56:31;9.80;;;8.90;;
65567;SDS011;52211;50.154;8.682;2022-10-14T04:59:01;10.07;;;8.93;;
65567;SDS011;52211;50.154;8.682;2022-10-14T05:01:28;10.93;;;9.77;;
65567;SDS011;52211;50.154;8.682;2022-10-14T05:03:59;10.37;;;9.40;;
65567;SDS011;52211;50.154;8.682;2022-10-14T05:06:28;10.40;;;9.53;;
65567;SDS011;52211;50.154;8.682;2022-10-14T05:08:55;10.83;;;9.90;;
65567;SDS011;52211;50.154;8.682;2022-10-14T05:11:28;11.70;;;8.53;;
65567;SDS011;52211;50.154;8.682;2022-10-14T05:13:56;9.73;;;8.93;;
65567;SDS011;52211;50.154;8.682;2022-10-14T05:16:25;10.30;;;9.40;;
65567;SDS011;52211;50.154;8.682;2022-10-14T05:18:55;9.03;;;8.33;;
65567;SDS011;52211;50.154;8.682;2022-10-14T05:21:23;8.67;;;7.97;;
65567;SDS011;52211;50.154;8.682;2022-10-14T05:23:52;9.70;;;8.80;;
65567;SDS011;52211;50.154;8.682;2022-10-14T05:26:24;9.47;;;8.60;;
65567;SDS011;52211;50.154;8.682;2022-10-14T05:28:53;9.80;;;9.00;;
65567;SDS011;52211;50.154;8.682;2022-10-14T05:31:23;10.13;;;9.17;;
65567;SDS011;52211;50.154;8.682;2022-10-14T05:33:56;11.57;;;9.37;;
65567;SDS011;52211;50.154;8.682;2022-10-14T05:36:25;10.13;;;9.40;;
65567;SDS011;52211;50.154;8.682;2022-10-14T05:38:52;9.37;;;8.50;;
65567;SDS011;52211;50.154;8.682;2022-10-14T05:41:27;9.83;;;9.03;;
65567;SDS011;52211;50.154;8.682;2022-10-14T05:44:02;9.63;;;8.80;;
65567;SDS011;52211;50.154;8.682;2022-10-14T05:46:36;9.67;;;8.83;;
65567;SDS011;52211;50.154;8.682;2022-10-14T05:49:03;10.53;;;9.63;;
65567;SDS011;52211;50.154;8.682;2022-10-14T05:51:32;10.23;;;9.20;;
65567;SDS011;52211;50.154;8.682;2022-10-14T05:54:03;11.17;;;10.10;;
65567;SDS011;52211;50.154;8.682;2022-10-14T05:56:34;9.97;;;8.87;;
65567;SDS011;52211;50.154;8.682;2022-10-14T05:59:01;10.17;;;9.27;;
65567;SDS011;52211;50.154;8.682;2022-10-14T06:01:29;10.37;;;9.47;;
65567;SDS011;52211;50.154;8.682;2022-10-14T06:03:59;9.77;;;8.97;;
65567;SDS011;52211;50.154;8.682;2022-10-14T06:06:28;11.47;;;9.60;;
65567;SDS011;52211;50.154;8.682;2022-10-14T06:08:59;10.53;;;9.53;;
65567;SDS011;52211;50.154;8.682;2022-10-14T06:11:26;10.37;;;9.27;;
65567;SDS011;52211;50.154;8.682;2022-10-14T06:13:57;9.70;;;8.80;;
65567;SDS011;52211;50.154;8.682;2022-10-14T06:16:26;10.50;;;9.53;;
65567;SDS011;52211;50.154;8.682;2022-10-14T06:18:57;10.43;;;9.53;;
65567;SDS011;52211;50.154;8.682;2022-10-14T06:21:29;9.50;;;8.80;;
65567;SDS011;52211;50.154;8.682;2022-10-14T06:23:56;10.87;;;9.83;;
65567;SDS011;52211;50.154;8.682;2022-10-14T06:26:25;10.73;;;9.70;;
65567;SDS011;52211;50.154;8.682;2022-10-14T06:28:52;9.83;;;8.93;;
65567;SDS011;52211;50.154;8.682;2022-10-14T06:31:19;11.27;;;10.17;;
65567;SDS011;52211;50.154;8.682;2022-10-14T06:33:48;10.60;;;9.40;;
65567;SDS011;52211;50.154;8.682;2022-10-14T06:36:17;10.23;;;9.23;;
65567;SDS011;52211;50.154;8.682;2022-10-14T06:38:44;10.90;;;9.87;;
65567;SDS011;52211;50.154;8.682;2022-10-14T06:41:13;10.27;;;9.47;;
65567;SDS011;52211;50.154;8.682;2022-10-14T06:43:42;10.20;;;9.20;;
65567;SDS011;52211;50.154;8.682;2022-10-14T06:46:09;10.63;;;9.63;;
65567;SDS011;52211;50.154;8.682;2022-10-14T06:48:36;10.03;;;9.13;;
65567;SDS011;52211;50.154;8.682;2022-10-14T06:51:05;10.47;;;9.43;;
65567;SDS011;52211;50.154;8.682;2022-10-14T06:53:35;9.90;;;9.03;;
65567;SDS011;52211;50.154;8.682;2022-10-14T06:56:05;11.00;;;9.87;;
65567;SDS011;52211;50.154;8.682;2022-10-14T06:58:37;10.87;;;9.63;;
65567;SDS011;52211;50.154;8.682;2022-10-14T07:01:06;11.10;;;9.97;;
65567;SDS011;52211;50.154;8.682;2022-10-14T07:03:34;11.73;;;10.23;;
65567;SDS011;52211;50.154;8.682;2022-10-14T07:06:07;10.40;;;9.50;;
65567;SDS011;52211;50.154;8.682;2022-10-14T07:08:36;10.07;;;9.10;;
65567;SDS011;52211;50.154;8.682;2022-10-14T07:11:03;10.27;;;9.30;;
65567;SDS011;52211;50.154;8.682;2022-10-14T07:13:31;10.70;;;9.50;;
65567;SDS011;52211;50.154;8.682;2022-10-14T07:15:59;10.37;;;9.37;;
65567;SDS011;52211;50.154;8.682;2022-10-14T07:18:26;10.70;;;9.60;;
65567;SDS011;52211;50.154;8.682;2022-10-14T07:20:55;10.63;;;9.63;;
65567;SDS011;52211;50.154;8.682;2022-10-14T07:23:26;10.43;;;9.47;;
65567;SDS011;52211;50.154;8.682;2022-10-14T07:25:59;11.87;;;10.67;;
65567;SDS011;52211;50.154;8.682;2022-10-14T07:28:28;14.07;;;10.57;;
65567;SDS011;52211;50.154;8.682;2022-10-14T07:30:59;12.30;;;11.03;;
65567;SDS011;52211;50.154;8.682;2022-10-14T07:33:35;11.10;;;10.20;;
65567;SDS011;52211;50.154;8.682;2022-10-14T07:36:08;10.70;;;9.77;;
65567;SDS011;52211;50.154;8.682;2022-10-14T07:38:42;10.63;;;9.50;;
65567;SDS011;52211;50.154;8.682;2022-10-14T07:41:14;10.83;;;9.80;;
65567;SDS011;52211;50.154;8.682;2022-10-14T07:43:49;10.87;;;9.63;;
65567;SDS011;52211;50.154;8.682;2022-10-14T07:46:28;10.70;;;9.60;;
65567;SDS011;52211;50.154;8.682;2022-10-14T07:48:59;10.73;;;9.67;;
65567;SDS011;52211;50.154;8.682;2022-10-14T07:51:43;10.67;;;9.67;;
65567;SDS011;52211;50.154;8.682;2022-10-14T07:54:13;11.87;;;10.70;;
65567;SDS011;52211;50.154;8.682;2022-10-14T07:56:46;11.13;;;9.43;;
65567;SDS011;52211;50.154;8.682;2022-10-14T07:59:16;11.63;;;10.47;;
65567;SDS011;52211;50.154;8.682;2022-10-14T08:01:46;11.40;;;10.40;;
65567;SDS011;52211;50.154;8.682;2022-10-14T08:04:19;11.90;;;10.37;;
65567;SDS011;52211;50.154;8.682;2022-10-14T08:06:49;12.70;;;10.87;;
65567;SDS011;52211;50.154;8.682;2022-10-14T08:09:17;11.17;;;10.07;;
65567;SDS011;52211;50.154;8.682;2022-10-14T08:11:47;11.37;;;10.23;;
65567;SDS011;52211;50.154;8.682;2022-10-14T08:14:16;11.47;;;10.47;;
65567;SDS011;52211;50.154;8.682;2022-10-14T08:16:43;11.23;;;10.17;;
65567;SDS011;52211;50.154;8.682;2022-10-14T08:19:10;11.43;;;10.27;;
65567;SDS011;52211;50.154;8.682;2022-10-14T08:21:43;11.47;;;10.47;;
65567;SDS011;52211;50.154;8.682;2022-10-14T08:24:12;11.60;;;10.40;;
65567;SDS011;52211;50.154;8.682;2022-10-14T08:26:48;11.77;;;10.40;;
65567;SDS011;52211;50.154;8.682;2022-10-14T08:29:21;12.70;;;11.50;;
65567;SDS011;52211;50.154;8.682;2022-10-14T08:31:52;11.60;;;10.37;;
65567;SDS011;52211;50.154;8.682;2022-10-14T08:34:22;11.57;;;10.47;;
65567;SDS011;52211;50.154;8.682;2022-10-14T08:36:53;11.67;;;10.67;;
65567;SDS011;52211;50.154;8.682;2022-10-14T08:39:22;12.53;;;11.23;;
65567;SDS011;52211;50.154;8.682;2022-10-14T08:47:59;12.53;;;11.20;;
65567;SDS011;52211;50.154;8.682;2022-10-14T08:50:37;13.63;;;12.00;;
65567;SDS011;52211;50.154;8.682;2022-10-14T08:53:16;10.33;;;9.43;;
65567;SDS011;52211;50.154;8.682;2022-10-14T08:55:56;11.53;;;10.43;;
65567;SDS011;52211;50.154;8.682;2022-10-14T08:58:32;11.07;;;10.07;;
65567;SDS011;52211;50.154;8.682;2022-10-14T09:03:57;10.97;;;9.87;;
65567;SDS011;52211;50.154;8.682;2022-10-14T09:06:33;11.67;;;10.47;;
65567;SDS011;52211;50.154;8.682;2022-10-14T09:09:13;10.07;;;9.20;;
65567;SDS011;52211;50.154;8.682;2022-10-14T09:11:50;11.20;;;9.50;;
65567;SDS011;52211;50.154;8.682;2022-10-14T09:14:32;11.47;;;10.47;;
65567;SDS011;52211;50.154;8.682;2022-10-14T09:17:30;10.80;;;9.63;;
65567;SDS011;52211;50.154;8.682;2022-10-14T09:22:43;11.07;;;10.07;;
65567;SDS011;52211;50.154;8.682;2022-10-14T09:25:26;10.93;;;9.87;;
65567;SDS011;52211;50.154;8.682;2022-10-14T09:27:57;10.47;;;9.57;;
65567;SDS011;52211;50.154;8.682;2022-10-14T09:30:27;10.77;;;9.77;;
65567;SDS011;52211;50.154;8.682;2022-10-14T09:33:05;8.70;;;8.00;;
65567;SDS011;52211;50.154;8.682;2022-10-14T09:35:45;10.53;;;9.33;;
65567;SDS011;52211;50.154;8.682;2022-10-14T09:38:17;11.03;;;9.90;;
65567;SDS011;52211;50.154;8.682;2022-10-14T09:40:50;12.80;;;10.50;;
65567;SDS011;52211;50.154;8.682;2022-10-14T09:43:23;11.27;;;10.27;;
65567;SDS011;52211;50.154;8.682;2022-10-14T09:46:01;11.13;;;9.60;;
65567;SDS011;52211;50.154;8.682;2022-10-14T09:53:56;9.73;;;8.77;;
65567;SDS011;52211;50.154;8.682;2022-10-14T09:56:37;10.00;;;9.17;;
65567;SDS011;52211;50.154;8.682;2022-10-14T09:59:20;9.60;;;8.70;;
65567;SDS011;52211;50.154;8.682;2022-10-14T10:01:50;11.03;;;10.13;;
65567;SDS011;52211;50.154;8.682;2022-10-14T10:07:00;9.47;;;8.67;;
65567;SDS011;52211;50.154;8.682;2022-10-14T10:09:32;10.10;;;9.20;;
65567;SDS011;52211;50.154;8.682;2022-10-14T10:12:17;9.80;;;8.90;;
65567;SDS011;52211;50.154;8.682;2022-10-14T10:14:58;13.47;;;9.80;;
65567;SDS011;52211;50.154;8.682;2022-10-14T10:17:30;9.53;;;8.73;;
65567;SDS011;52211;50.154;8.682;2022-10-14T10:23:15;10.83;;;9.90;;
65567;SDS011;52211;50.154;8.682;2022-10-14T10:25:52;12.47;;;9.47;;
65567;SDS011;52211;50.154;8.682;2022-10-14T10:28:28;11.60;;;10.47;;
65567;SDS011;52211;50.154;8.682;2022-10-14T10:31:06;11.43;;;10.37;;
65567;SDS011;52211;50.154;8.682;2022-10-14T10:36:38;11.13;;;10.20;;
65567;SDS011;52211;50.154;8.682;2022-10-14T10:39:35;9.43;;;8.53;;
65567;SDS011;52211;50.154;8.682;2022-10-14T10:42:22;10.63;;;9.60;;
65567;SDS011;52211;50.154;8.682;2022-10-14T10:45:15;9.13;;;8.43;;
65567;SDS011;52211;50.154;8.682;2022-10-14T10:48:46;9.03;;;8.27;;
65567;SDS011;52211;50.154;8.682;2022-10-14T10:51:50;8.50;;;7.60;;
65567;SDS011;52211;50.154;8.682;2022-10-14T11:00:37;9.67;;;8.67;;
65567;SDS011;52211;50.154;8.682;2022-10-14T11:03:29;9.90;;;9.00;;
65567;SDS011;52211;50.154;8.682;2022-10-14T11:06:13;10.73;;;8.83;;
65567;SDS011;52211;50.154;8.682;2022-10-14T11:09:14;8.83;;;8.13;;
65567;SDS011;52211;50.154;8.682;2022-10-14T11:12:23;8.90;;;8.17;;
65567;SDS011;52211;50.154;8.682;2022-10-14T11:15:22;7.90;;;7.23;;
65567;SDS011;52211;50.154;8.682;2022-10-14T11:18:00;9.10;;;8.40;;
65567;SDS011;52211;50.154;8.682;2022-10-14T11:23:54;8.37;;;7.60;;
65567;SDS011;52211;50.154;8.682;2022-10-14T11:32:52;7.77;;;7.20;;
65567;SDS011;52211;50.154;8.682;2022-10-14T11:35:52;8.67;;;7.87;;
65567;SDS011;52211;50.154;8.682;2022-10-14T11:44:34;7.67;;;7.07;;
65567;SDS011;52211;50.154;8.682;2022-10-14T11:49:59;7.23;;;6.63;;
65567;SDS011;52211;50.154;8.682;2022-10-14T11:52:42;7.43;;;6.93;;
65567;SDS011;52211;50.154;8.682;2022-10-14T11:55:13;8.03;;;7.43;;
65567;SDS011;52211;50.154;8.682;2022-10-14T11:57:51;8.10;;;7.33;;
65567;SDS011;52211;50.154;8.682;2022-10-14T12:00:27;7.60;;;6.90;;
65567;SDS011;52211;50.154;8.682;2022-10-14T12:03:37;7.40;;;6.90;;
65567;SDS011;52211;50.154;8.682;2022-10-14T12:06:24;8.33;;;7.67;;
65567;SDS011;52211;50.154;8.682;2022-10-14T12:09:37;7.80;;;7.00;;
65567;SDS011;52211;50.154;8.682;2022-10-14T12:12:13;7.70;;;7.10;;
65567;SDS011;52211;50.154;8.682;2022-10-14T12:14:54;7.73;;;6.67;;
65567;SDS011;52211;50.154;8.682;2022-10-14T12:17:36;8.10;;;7.30;;
65567;SDS011;52211;50.154;8.682;2022-10-14T12:22:49;7.23;;;6.70;;
65567;SDS011;52211;50.154;8.682;2022-10-14T12:25:22;6.63;;;6.13;;
65567;SDS011;52211;50.154;8.682;2022-10-14T12:27:57;6.97;;;6.37;;
65567;SDS011;52211;50.154;8.682;2022-10-14T12:30:29;6.83;;;6.33;;
65567;SDS011;52211;50.154;8.682;2022-10-14T12:33:08;6.60;;;6.10;;
65567;SDS011;52211;50.154;8.682;2022-10-14T12:38:24;6.83;;;6.33;;
65567;SDS011;52211;50.154;8.682;2022-10-14T12:40:56;6.57;;;6.00;;
65567;SDS011;52211;50.154;8.682;2022-10-14T12:44:08;6.63;;;6.23;;
65567;SDS011;52211;50.154;8.682;2022-10-14T12:46:44;6.37;;;5.77;;
65567;SDS011;52211;50.154;8.682;2022-10-14T12:49:26;6.87;;;6.47;;
65567;SDS011;52211;50.154;8.682;2022-10-14T12:52:00;6.90;;;6.30;;
65567;SDS011;52211;50.154;8.682;2022-10-14T12:54:33;6.63;;;6.13;;
65567;SDS011;52211;50.154;8.682;2022-10-14T12:57:04;7.50;;;6.90;;
65567;SDS011;52211;50.154;8.682;2022-10-14T12:59:46;7.03;;;6.53;;
65567;SDS011;52211;50.154;8.682;2022-10-14T13:02:17;6.47;;;6.00;;
65567;SDS011;52211;50.154;8.682;2022-10-14T13:16:07;6.70;;;6.20;;
65567;SDS011;52211;50.154;8.682;2022-10-14T13:21:08;7.23;;;6.63;;
65567;SDS011;52211;50.154;8.682;2022-10-14T13:27:01;6.63;;;6.13;;
65567;SDS011;52211;50.154;8.682;2022-10-14T13:35:07;7.23;;;6.73;;
65567;SDS011;52211;50.154;8.682;2022-10-14T13:38:05;6.87;;;6.30;;
65567;SDS011;52211;50.154;8.682;2022-10-14T13:40:43;7.30;;;6.77;;
65567;SDS011;52211;50.154;8.682;2022-10-14T13:43:19;7.23;;;6.83;;
65567;SDS011;52211;50.154;8.682;2022-10-14T13:46:01;7.37;;;6.90;;
65567;SDS011;52211;50.154;8.682;2022-10-14T13:48:43;7.00;;;6.60;;
65567;SDS011;52211;50.154;8.682;2022-10-14T13:54:14;7.03;;;6.53;;
65567;SDS011;52211;50.154;8.682;2022-10-14T13:57:01;6.73;;;6.23;;
65567;SDS011;52211;50.154;8.682;2022-10-14T13:59:59;8.10;;;7.30;;
65567;SDS011;52211;50.154;8.682;2022-10-14T14:02:46;6.30;;;5.93;;
65567;SDS011;52211;50.154;8.682;2022-10-14T14:05:20;6.47;;;5.90;;
65567;SDS011;52211;50.154;8.682;2022-10-14T14:07:52;6.90;;;6.30;;
65567;SDS011;52211;50.154;8.682;2022-10-14T14:10:52;6.57;;;6.07;;
65567;SDS011;52211;50.154;8.682;2022-10-14T14:13:44;5.90;;;5.50;;
65567;SDS011;52211;50.154;8.682;2022-10-14T14:16:27;6.57;;;6.07;;
65567;SDS011;52211;50.154;8.682;2022-10-14T14:18:59;6.60;;;6.00;;
65567;SDS011;52211;50.154;8.682;2022-10-14T14:21:35;7.40;;;6.83;;
65567;SDS011;52211;50.154;8.682;2022-10-14T14:24:05;7.07;;;6.50;;
65567;SDS011;52211;50.154;8.682;2022-10-14T14:26:47;6.80;;;6.30;;
65567;SDS011;52211;50.154;8.682;2022-10-14T14:29:19;6.67;;;6.27;;
65567;SDS011;52211;50.154;8.682;2022-10-14T14:31:54;6.20;;;5.80;;
65567;SDS011;52211;50.154;8.682;2022-10-14T14:34:34;6.70;;;6.20;;
65567;SDS011;52211;50.154;8.682;2022-10-14T14:37:03;6.73;;;6.23;;
65567;SDS011;52211;50.154;8.682;2022-10-14T14:42:47;6.33;;;5.93;;
65567;SDS011;52211;50.154;8.682;2022-10-14T14:45:24;6.80;;;6.20;;
65567;SDS011;52211;50.154;8.682;2022-10-14T14:47:58;6.23;;;5.73;;
65567;SDS011;52211;50.154;8.682;2022-10-14T14:50:35;6.07;;;5.67;;
65567;SDS011;52211;50.154;8.682;2022-10-14T14:53:13;6.27;;;5.77;;
65567;SDS011;52211;50.154;8.682;2022-10-14T14:58:26;6.77;;;6.17;;
65567;SDS011;52211;50.154;8.682;2022-10-14T15:01:03;7.17;;;6.23;;
65567;SDS011;52211;50.154;8.682;2022-10-14T15:03:33;6.47;;;5.97;;
65567;SDS011;52211;50.154;8.682;2022-10-14T15:06:39;6.80;;;6.40;;
65567;SDS011;52211;50.154;8.682;2022-10-14T15:09:25;6.90;;;6.50;;
65567;SDS011;52211;50.154;8.682;2022-10-14T15:12:12;6.70;;;6.20;;
65567;SDS011;52211;50.154;8.682;2022-10-14T15:17:27;7.37;;;6.67;;
65567;SDS011;52211;50.154;8.682;2022-10-14T15:22:29;6.90;;;6.23;;
65567;SDS011;52211;50.154;8.682;2022-10-14T15:27:45;6.37;;;6.00;;
65567;SDS011;52211;50.154;8.682;2022-10-14T15:35:44;6.87;;;6.37;;
65567;SDS011;52211;50.154;8.682;2022-10-14T15:38:28;7.33;;;6.73;;
65567;SDS011;52211;50.154;8.682;2022-10-14T15:40:57;7.10;;;6.47;;
65567;SDS011;52211;50.154;8.682;2022-10-14T15:43:28;6.47;;;6.00;;
65567;SDS011;52211;50.154;8.682;2022-10-14T15:45:58;6.87;;;6.37;;
65567;SDS011;52211;50.154;8.682;2022-10-14T15:48:51;7.67;;;7.07;;
65567;SDS011;52211;50.154;8.682;2022-10-14T15:51:22;6.20;;;5.67;;
65567;SDS011;52211;50.154;8.682;2022-10-14T15:53:58;9.50;;;6.67;;
65567;SDS011;52211;50.154;8.682;2022-10-14T15:56:27;6.63;;;6.07;;
65567;SDS011;52211;50.154;8.682;2022-10-14T15:58:54;6.90;;;6.40;;
65567;SDS011;52211;50.154;8.682;2022-10-14T16:01:23;7.37;;;6.77;;
65567;SDS011;52211;50.154;8.682;2022-10-14T16:03:50;7.23;;;6.63;;
65567;SDS011;52211;50.154;8.682;2022-10-14T16:06:17;7.03;;;6.50;;
65567;SDS011;52211;50.154;8.682;2022-10-14T16:08:47;6.57;;;6.07;;
65567;SDS011;52211;50.154;8.682;2022-10-14T16:11:20;7.17;;;6.50;;
65567;SDS011;52211;50.154;8.682;2022-10-14T16:13:52;7.53;;;6.80;;
65567;SDS011;52211;50.154;8.682;2022-10-14T16:16:30;6.97;;;6.47;;
65567;SDS011;52211;50.154;8.682;2022-10-14T16:19:02;7.70;;;7.00;;
65567;SDS011;52211;50.154;8.682;2022-10-14T16:21:31;6.77;;;6.27;;
65567;SDS011;52211;50.154;8.682;2022-10-14T16:24:03;7.90;;;7.20;;
65567;SDS011;52211;50.154;8.682;2022-10-14T16:26:39;6.63;;;6.13;;
65567;SDS011;52211;50.154;8.682;2022-10-14T16:29:07;7.97;;;7.10;;
65567;SDS011;52211;50.154;8.682;2022-10-14T16:31:35;6.70;;;6.30;;
65567;SDS011;52211;50.154;8.682;2022-10-14T16:34:02;7.30;;;6.67;;
65567;SDS011;52211;50.154;8.682;2022-10-14T16:36:28;6.93;;;6.23;;
65567;SDS011;52211;50.154;8.682;2022-10-14T16:38:57;6.97;;;6.33;;
65567;SDS011;52211;50.154;8.682;2022-10-14T16:41:26;7.37;;;6.73;;
65567;SDS011;52211;50.154;8.682;2022-10-14T16:43:56;7.70;;;7.00;;
65567;SDS011;52211;50.154;8.682;2022-10-14T16:46:22;7.70;;;7.20;;
65567;SDS011;52211;50.154;8.682;2022-10-14T16:49:11;6.97;;;6.37;;
65567;SDS011;52211;50.154;8.682;2022-10-14T16:51:42;7.53;;;6.93;;
65567;SDS011;52211;50.154;8.682;2022-10-14T16:54:10;6.90;;;6.40;;
65567;SDS011;52211;50.154;8.682;2022-10-14T16:56:37;6.50;;;6.10;;
65567;SDS011;52211;50.154;8.682;2022-10-14T16:59:19;7.20;;;6.57;;
65567;SDS011;52211;50.154;8.682;2022-10-14T17:01:47;6.50;;;6.07;;
65567;SDS011;52211;50.154;8.682;2022-10-14T17:04:19;7.70;;;7.10;;
65567;SDS011;52211;50.154;8.682;2022-10-14T17:06:52;6.80;;;6.30;;
65567;SDS011;52211;50.154;8.682;2022-10-14T17:09:19;7.47;;;6.83;;
65567;SDS011;52211;50.154;8.682;2022-10-14T17:11:50;7.40;;;6.80;;
65567;SDS011;52211;50.154;8.682;2022-10-14T17:14:21;7.80;;;7.30;;
65567;SDS011;52211;50.154;8.682;2022-10-14T17:16:50;7.00;;;6.47;;
65567;SDS011;52211;50.154;8.682;2022-10-14T17:19:19;7.17;;;6.57;;
65567;SDS011;52211;50.154;8.682;2022-10-14T17:22:01;6.40;;;6.00;;
65567;SDS011;52211;50.154;8.682;2022-10-14T17:24:29;6.73;;;6.23;;
65567;SDS011;52211;50.154;8.682;2022-10-14T17:26:59;7.70;;;7.10;;
65567;SDS011;52211;50.154;8.682;2022-10-14T17:29:29;7.27;;;6.60;;
65567;SDS011;52211;50.154;8.682;2022-10-14T17:31:59;7.70;;;7.10;;